首页
METAR-TAF:

METAR-TAF

机场 :

霍巴特, 奧克拉荷馬州, 美国

纬度: 34-59-22N, 经度: 099-03-09W, 海拔: 476米

当前天气观测

该预报发布于1小时和6分钟前的02:53 UTC
风速14节,风向南转南东
温度 29°C
湿度 62%
气压 1009 hPa
能見度: 16.1公里
天空无云

METAR: KHBR 170253Z AUTO 16014KT 10SM CLR 29/21 A2979 RMK AO2 SLP067 T02890206 53012

时间: 22:59 (03:59 UTC)


TAF: 丢失

超过4000个机场的气象观测和天气预报(METAR&TAF报告)。

可查询的气象台以黄色和红色小点在地图上表示。

将鼠标移到小点上方,可查看气象台名称。

然后点击查看天气观测和预报。

如需切换地图:点击带黑十字的绿色按钮放大地图;点击带横线的绿色按钮缩小地图;或者点击绿色箭头查看邻近地区的地图。


METAR-TAF: